createdAt,value
2018-12-17T00:00:03.500Z,928.06
2018-12-17T00:01:35.076Z,928.04
2018-12-17T00:03:06.652Z,928.04
2018-12-17T00:04:38.228Z,928.06
2018-12-17T00:06:09.804Z,928.06
2018-12-17T00:07:41.381Z,928.15
2018-12-17T00:09:12.959Z,928.17
2018-12-17T00:10:44.534Z,928.16
2018-12-17T00:12:16.724Z,928.20
2018-12-17T00:13:47.687Z,928.29
2018-12-17T00:15:19.264Z,928.29
2018-12-17T00:16:50.939Z,928.36
2018-12-17T00:18:22.416Z,928.33
2018-12-17T00:19:53.994Z,928.36
2018-12-17T00:21:25.570Z,928.39
2018-12-17T00:22:57.146Z,928.36
2018-12-17T00:24:28.723Z,928.38
2018-12-17T00:26:00.300Z,928.37
2018-12-17T00:27:31.876Z,928.35
2018-12-17T00:29:03.452Z,928.37
2018-12-17T00:30:35.028Z,928.33
2018-12-17T00:32:06.605Z,928.33
2018-12-17T00:33:38.181Z,928.34
2018-12-17T00:35:09.858Z,928.36
2018-12-17T00:36:41.334Z,928.36
2018-12-17T00:38:12.912Z,928.36
2018-12-17T00:39:44.488Z,928.35
2018-12-17T00:41:16.064Z,928.32
2018-12-17T00:42:47.641Z,928.35
2018-12-17T00:44:19.219Z,928.36
2018-12-17T00:45:50.796Z,928.31
2018-12-17T00:47:22.371Z,928.27
2018-12-17T00:48:53.947Z,928.27
2018-12-17T00:50:25.523Z,928.26
2018-12-17T00:51:57.100Z,928.30
2018-12-17T00:53:28.779Z,928.30
2018-12-17T00:55:00.325Z,928.28
2018-12-17T00:56:31.941Z,928.27
2018-12-17T00:58:03.477Z,928.28
2018-12-17T00:59:35.057Z,928.29
2018-12-17T01:01:06.630Z,928.28
2018-12-17T01:02:38.207Z,928.31
2018-12-17T01:04:09.783Z,928.36
2018-12-17T01:05:41.359Z,928.37
2018-12-17T01:07:12.935Z,928.40
2018-12-17T01:08:44.513Z,928.37
2018-12-17T01:10:16.090Z,928.41
2018-12-17T01:11:47.917Z,928.37
2018-12-17T01:13:19.173Z,928.39
2018-12-17T01:14:50.748Z,928.41
2018-12-17T01:16:22.324Z,928.36
2018-12-17T01:17:53.900Z,928.36
2018-12-17T01:19:25.481Z,928.30
2018-12-17T01:20:57.126Z,928.34
2018-12-17T01:22:28.699Z,928.37
2018-12-17T01:24:00.277Z,928.36
2018-12-17T01:25:31.853Z,928.38
2018-12-17T01:27:03.433Z,928.38
2018-12-17T01:28:35.009Z,928.38
2018-12-17T01:30:06.733Z,928.38
2018-12-17T01:31:38.157Z,928.41
2018-12-17T01:33:09.664Z,928.41
2018-12-17T01:34:41.310Z,928.41
2018-12-17T01:36:12.885Z,928.39
2018-12-17T01:37:44.462Z,928.42
2018-12-17T01:39:16.037Z,928.42
2018-12-17T01:40:47.617Z,928.40
2018-12-17T01:42:19.190Z,928.41
2018-12-17T01:43:50.694Z,928.38
2018-12-17T01:45:22.271Z,928.43
2018-12-17T01:46:53.846Z,928.38
2018-12-17T01:48:25.522Z,928.33
2018-12-17T01:49:57.067Z,928.32
2018-12-17T01:51:28.645Z,928.32
2018-12-17T01:53:00.149Z,928.29
2018-12-17T01:54:31.725Z,928.30
2018-12-17T01:56:03.302Z,928.32
2018-12-17T01:57:34.877Z,928.34
2018-12-17T01:59:06.453Z,928.29
2018-12-17T02:00:38.100Z,928.31
2018-12-17T02:02:09.675Z,928.29
2018-12-17T02:03:41.182Z,928.30
2018-12-17T02:05:12.757Z,928.25
2018-12-17T02:06:44.553Z,928.22
2018-12-17T02:08:15.979Z,928.23
2018-12-17T02:09:47.555Z,928.20
2018-12-17T02:11:19.131Z,928.15
2018-12-17T02:12:50.637Z,928.14
2018-12-17T02:14:22.213Z,928.17
2018-12-17T02:15:53.790Z,928.21
2018-12-17T02:17:25.435Z,928.16
2018-12-17T02:18:57.011Z,928.20
2018-12-17T02:20:28.695Z,928.18
2018-12-17T02:22:00.163Z,928.18
2018-12-17T02:23:31.669Z,928.13
2018-12-17T02:25:03.346Z,928.15
2018-12-17T02:26:34.821Z,928.07
2018-12-17T02:28:06.467Z,928.04
2018-12-17T02:29:38.044Z,927.99
2018-12-17T02:31:09.620Z,927.97
2018-12-17T02:32:41.128Z,927.92
2018-12-17T02:34:12.701Z,927.94
2018-12-17T02:35:44.348Z,927.92
2018-12-17T02:37:15.922Z,927.91
2018-12-17T02:38:47.498Z,927.91
2018-12-17T02:40:19.074Z,927.93
2018-12-17T02:41:50.650Z,927.88
2018-12-17T02:43:22.375Z,927.86
2018-12-17T02:44:53.737Z,927.83
2018-12-17T02:46:25.377Z,927.88
2018-12-17T02:47:56.954Z,927.80
2018-12-17T02:49:28.528Z,927.82
2018-12-17T02:51:00.104Z,927.80
2018-12-17T02:52:31.611Z,927.77
2018-12-17T02:54:03.187Z,927.80
2018-12-17T02:55:34.762Z,927.80
2018-12-17T02:57:06.337Z,927.76
2018-12-17T02:58:44.020Z,927.77
2018-12-17T03:00:09.559Z,927.76
2018-12-17T03:01:41.284Z,927.78
2018-12-17T03:03:12.641Z,927.76
2018-12-17T03:04:44.215Z,927.74
2018-12-17T03:06:15.791Z,927.68
2018-12-17T03:07:47.437Z,927.62
2018-12-17T03:09:19.013Z,927.59
2018-12-17T03:10:50.588Z,927.52
2018-12-17T03:12:22.163Z,927.50
2018-12-17T03:13:53.671Z,927.49
2018-12-17T03:15:25.246Z,927.46
2018-12-17T03:16:56.820Z,927.47
2018-12-17T03:18:28.397Z,927.46
2018-12-17T03:20:00.073Z,927.43
2018-12-17T03:21:31.548Z,927.42
2018-12-17T03:23:03.123Z,927.41
2018-12-17T03:24:34.699Z,927.39
2018-12-17T03:26:06.276Z,927.36
2018-12-17T03:27:37.850Z,927.35
2018-12-17T03:29:09.426Z,927.34
2018-12-17T03:30:41.007Z,927.35
2018-12-17T03:32:12.590Z,927.30
2018-12-17T03:33:44.161Z,927.25
2018-12-17T03:35:15.728Z,927.18
2018-12-17T03:36:47.303Z,927.17
2018-12-17T03:38:18.978Z,927.15
2018-12-17T03:39:50.456Z,927.10
2018-12-17T03:41:22.028Z,927.05
2018-12-17T03:42:53.606Z,927.06
2018-12-17T03:44:25.182Z,927.01
2018-12-17T03:45:56.756Z,927.02
2018-12-17T03:47:28.331Z,927.00
2018-12-17T03:48:59.907Z,927.00
2018-12-17T03:50:31.486Z,926.96
2018-12-17T03:52:03.058Z,926.98
2018-12-17T03:53:34.632Z,926.94
2018-12-17T03:55:06.208Z,926.94
2018-12-17T03:56:38.004Z,926.92
2018-12-17T03:58:09.429Z,926.90
2018-12-17T03:59:41.004Z,926.89
2018-12-17T04:01:12.580Z,926.94
2018-12-17T04:02:44.084Z,926.96
2018-12-17T04:04:15.730Z,927.00
2018-12-17T04:05:47.306Z,926.97
2018-12-17T04:07:18.880Z,926.96
2018-12-17T04:08:50.455Z,926.95
2018-12-17T04:10:22.031Z,926.97
2018-12-17T04:11:53.606Z,926.98
2018-12-17T04:13:25.183Z,926.94
2018-12-17T04:14:56.908Z,927.01
2018-12-17T04:16:28.334Z,927.00
2018-12-17T04:17:59.908Z,927.00
2018-12-17T04:19:31.484Z,926.99
2018-12-17T04:21:03.058Z,926.98
2018-12-17T04:22:34.563Z,926.98
2018-12-17T04:24:06.209Z,926.95
2018-12-17T04:25:37.850Z,926.94
2018-12-17T04:27:09.361Z,926.89
2018-12-17T04:28:40.944Z,926.88
2018-12-17T04:30:12.508Z,926.90
2018-12-17T04:31:44.083Z,926.84
2018-12-17T04:33:15.947Z,926.82
2018-12-17T04:34:47.163Z,926.80
2018-12-17T04:36:18.848Z,926.77
2018-12-17T04:37:50.316Z,926.78
2018-12-17T04:39:21.889Z,926.73
2018-12-17T04:40:53.468Z,926.75
2018-12-17T04:42:25.040Z,926.68
2018-12-17T04:43:56.620Z,926.67
2018-12-17T04:45:28.191Z,926.60
2018-12-17T04:46:59.767Z,926.59
2018-12-17T04:48:31.340Z,926.52
2018-12-17T04:50:02.919Z,926.56
2018-12-17T04:51:34.592Z,926.51
2018-12-17T04:53:06.067Z,926.51
2018-12-17T04:54:37.640Z,926.55
2018-12-17T04:56:09.217Z,926.55
2018-12-17T04:57:40.791Z,926.51
2018-12-17T04:59:14.761Z,926.55
2018-12-17T05:00:43.941Z,926.52
2018-12-17T05:02:15.516Z,926.52
2018-12-17T05:03:47.093Z,926.51
2018-12-17T05:05:18.668Z,926.51
2018-12-17T05:06:50.241Z,926.49
2018-12-17T05:08:21.818Z,926.45
2018-12-17T05:09:53.495Z,926.46
2018-12-17T05:11:24.970Z,926.46
2018-12-17T05:12:56.545Z,926.42
2018-12-17T05:14:28.117Z,926.40
2018-12-17T05:15:59.694Z,926.41
2018-12-17T05:17:31.267Z,926.38
2018-12-17T05:19:02.844Z,926.37
2018-12-17T05:20:34.418Z,926.31
2018-12-17T05:22:05.993Z,926.33
2018-12-17T05:23:37.568Z,926.28
2018-12-17T05:25:09.144Z,926.32
2018-12-17T05:26:40.717Z,926.28
2018-12-17T05:28:12.397Z,926.27
2018-12-17T05:29:43.869Z,926.28
2018-12-17T05:31:15.443Z,926.29
2018-12-17T05:32:47.018Z,926.28
2018-12-17T05:34:18.599Z,926.31
2018-12-17T05:35:50.168Z,926.35
2018-12-17T05:37:21.743Z,926.31
2018-12-17T05:38:53.318Z,926.32
2018-12-17T05:40:24.894Z,926.34
2018-12-17T05:41:56.468Z,926.26
2018-12-17T05:43:28.044Z,926.25
2018-12-17T05:44:59.618Z,926.25
2018-12-17T05:46:31.294Z,926.25
2018-12-17T05:48:02.771Z,926.27
2018-12-17T05:49:34.344Z,926.29
2018-12-17T05:51:05.919Z,926.39
2018-12-17T05:52:37.495Z,926.44
2018-12-17T05:54:09.070Z,926.47
2018-12-17T05:55:40.644Z,926.48
2018-12-17T05:57:12.219Z,926.44
2018-12-17T05:58:43.794Z,926.45
2018-12-17T06:00:15.369Z,926.48
2018-12-17T06:01:46.942Z,926.42
2018-12-17T06:03:18.519Z,926.48
2018-12-17T06:04:50.643Z,926.49
2018-12-17T06:06:21.667Z,926.45
2018-12-17T06:07:53.242Z,926.45
2018-12-17T06:09:24.817Z,926.38
2018-12-17T06:10:56.392Z,926.34
2018-12-17T06:12:27.968Z,926.31
2018-12-17T06:13:59.542Z,926.27
2018-12-17T06:15:31.118Z,926.26
2018-12-17T06:17:02.692Z,926.22
2018-12-17T06:18:34.266Z,926.17
2018-12-17T06:20:05.841Z,926.26
2018-12-17T06:21:37.416Z,926.27
2018-12-17T06:23:09.090Z,926.22
2018-12-17T06:24:40.565Z,926.21
2018-12-17T06:26:12.141Z,926.20
2018-12-17T06:27:43.716Z,926.17
2018-12-17T06:29:15.290Z,926.15
2018-12-17T06:30:46.871Z,926.15
2018-12-17T06:32:18.439Z,926.19
2018-12-17T06:33:50.014Z,926.19
2018-12-17T06:35:21.589Z,926.23
2018-12-17T06:36:53.163Z,926.23
2018-12-17T06:38:24.738Z,926.26
2018-12-17T06:39:56.313Z,926.26
2018-12-17T06:41:27.988Z,926.24
2018-12-17T06:42:59.464Z,926.27
2018-12-17T06:44:31.038Z,926.25
2018-12-17T06:46:02.613Z,926.24
2018-12-17T06:47:34.188Z,926.24
2018-12-17T06:49:05.762Z,926.22
2018-12-17T06:50:37.339Z,926.22
2018-12-17T06:52:08.913Z,926.23
2018-12-17T06:53:40.488Z,926.22
2018-12-17T06:55:12.063Z,926.22
2018-12-17T06:56:43.638Z,926.22
2018-12-17T06:58:15.214Z,926.22
2018-12-17T06:59:46.890Z,926.23
2018-12-17T07:01:18.363Z,926.22
2018-12-17T07:02:49.938Z,926.26
2018-12-17T07:04:21.513Z,926.23
2018-12-17T07:05:53.089Z,926.25
2018-12-17T07:07:24.664Z,926.19
2018-12-17T07:08:56.238Z,926.20
2018-12-17T07:10:27.813Z,926.18
2018-12-17T07:11:59.388Z,926.13
2018-12-17T07:13:30.963Z,926.15
2018-12-17T07:15:02.538Z,926.12
2018-12-17T07:16:34.113Z,926.14
2018-12-17T07:18:05.787Z,926.05
2018-12-17T07:19:37.265Z,926.11
2018-12-17T07:21:08.838Z,926.14
2018-12-17T07:22:40.413Z,926.18
2018-12-17T07:24:11.989Z,926.28
2018-12-17T07:25:43.563Z,926.30
2018-12-17T07:27:15.136Z,926.29
2018-12-17T07:28:46.712Z,926.31
2018-12-17T07:30:18.288Z,926.29
2018-12-17T07:31:49.861Z,926.32
2018-12-17T07:33:21.437Z,926.36
2018-12-17T07:34:53.012Z,926.38
2018-12-17T07:36:24.687Z,926.35
2018-12-17T07:37:56.160Z,926.36
2018-12-17T07:39:27.736Z,926.37
2018-12-17T07:40:59.315Z,926.33
2018-12-17T07:42:30.886Z,926.33
2018-12-17T07:44:02.580Z,926.33
2018-12-17T07:45:34.036Z,926.30
2018-12-17T07:47:05.611Z,926.31
2018-12-17T07:48:37.187Z,926.27
2018-12-17T07:50:08.761Z,926.21
2018-12-17T07:51:40.337Z,926.21
2018-12-17T07:53:11.911Z,926.26
2018-12-17T07:54:43.587Z,926.25
2018-12-17T07:56:15.061Z,926.33
2018-12-17T07:57:46.636Z,926.38
2018-12-17T07:59:18.211Z,926.41
2018-12-17T08:00:49.784Z,926.41
2018-12-17T08:02:21.359Z,926.46
2018-12-17T08:03:52.935Z,926.41
2018-12-17T08:05:24.509Z,926.45
2018-12-17T08:06:56.084Z,926.40
2018-12-17T08:08:27.659Z,926.43
2018-12-17T08:09:59.239Z,926.44
2018-12-17T08:11:30.809Z,926.44
2018-12-17T08:13:02.485Z,926.47
2018-12-17T08:14:33.956Z,926.46
2018-12-17T08:16:05.531Z,926.52
2018-12-17T08:17:37.107Z,926.56
2018-12-17T08:19:08.686Z,926.59
2018-12-17T08:20:40.255Z,926.66
2018-12-17T08:22:11.830Z,926.74
2018-12-17T08:23:43.443Z,926.79
2018-12-17T08:25:15.041Z,926.81
2018-12-17T08:26:46.959Z,926.83
2018-12-17T08:28:18.133Z,926.85
2018-12-17T08:29:49.703Z,926.90
2018-12-17T08:31:21.411Z,926.96
2018-12-17T08:32:52.853Z,926.96
2018-12-17T08:34:24.733Z,926.98
2018-12-17T08:35:56.033Z,926.97
2018-12-17T08:37:27.578Z,926.95
2018-12-17T08:38:59.154Z,926.96
2018-12-17T08:40:30.774Z,927.01
2018-12-17T08:42:02.439Z,927.05
2018-12-17T08:43:33.880Z,927.09
2018-12-17T08:45:05.458Z,927.12
2018-12-17T08:46:37.032Z,927.11
2018-12-17T08:48:08.608Z,927.17
2018-12-17T08:49:40.591Z,927.16
2018-12-17T08:51:11.791Z,927.23
2018-12-17T08:52:43.337Z,927.24
2018-12-17T08:54:14.916Z,927.29
2018-12-17T08:55:46.524Z,927.29
2018-12-17T08:57:18.068Z,927.31
2018-12-17T08:58:49.645Z,927.27
2018-12-17T09:00:21.261Z,927.27
2018-12-17T09:01:53.325Z,927.24
2018-12-17T09:03:24.378Z,927.25
2018-12-17T09:04:55.956Z,927.28
2018-12-17T09:06:27.539Z,927.30
2018-12-17T09:07:59.212Z,927.34
2018-12-17T09:09:30.693Z,927.36
2018-12-17T09:11:02.567Z,927.38
2018-12-17T09:12:33.846Z,927.38
2018-12-17T09:14:05.423Z,927.44
2018-12-17T09:15:37.027Z,927.49
2018-12-17T09:17:08.581Z,927.54
2018-12-17T09:18:40.158Z,927.54
2018-12-17T09:20:11.781Z,927.54
2018-12-17T09:21:43.522Z,927.57
2018-12-17T09:24:47.430Z,927.66
2018-12-17T09:26:18.150Z,927.61
2018-12-17T09:27:49.631Z,927.65
2018-12-17T09:29:21.239Z,927.65
2018-12-17T09:32:24.364Z,927.74
2018-12-17T09:33:58.864Z,927.77
2018-12-17T09:35:27.522Z,927.82
2018-12-17T09:36:59.101Z,927.82
2018-12-17T09:38:31.628Z,927.82
2018-12-17T09:40:02.259Z,927.86
2018-12-17T09:41:33.840Z,927.86
2018-12-17T09:43:05.461Z,927.96
2018-12-17T09:44:37.097Z,927.95
2018-12-17T09:46:08.575Z,927.94
2018-12-17T09:47:41.530Z,927.92
2018-12-17T09:50:43.433Z,927.94
2018-12-17T09:52:14.940Z,927.98
2018-12-17T09:53:46.780Z,928.01
2018-12-17T09:55:18.890Z,928.06
2018-12-17T09:56:49.867Z,928.06
2018-12-17T09:58:21.438Z,928.08
2018-12-17T09:59:53.297Z,928.07
2018-12-17T10:01:24.431Z,928.03
2018-12-17T10:02:56.092Z,928.07
2018-12-17T10:04:28.195Z,928.06
2018-12-17T10:05:59.251Z,928.08
2018-12-17T10:07:31.300Z,928.10
2018-12-17T10:10:34.215Z,928.12
2018-12-17T10:12:05.518Z,928.16
2018-12-17T10:13:37.215Z,928.10
2018-12-17T10:15:08.591Z,928.10
2018-12-17T10:16:40.202Z,928.10
2018-12-17T10:18:11.750Z,928.13
2018-12-17T10:19:43.537Z,928.15
2018-12-17T10:21:14.953Z,928.14
2018-12-17T10:24:18.327Z,928.16
2018-12-17T10:25:49.652Z,928.11
2018-12-17T10:27:21.235Z,928.14
2018-12-17T10:28:53.325Z,928.13
2018-12-17T10:30:32.311Z,928.11
2018-12-17T10:31:56.031Z,928.06
2018-12-17T10:33:27.673Z,928.13
2018-12-17T10:34:59.345Z,928.11
2018-12-17T10:38:03.515Z,928.10
2018-12-17T10:39:34.629Z,928.09
2018-12-17T10:42:37.219Z,928.10
2018-12-17T10:44:09.850Z,928.12
2018-12-17T10:45:40.309Z,928.13
2018-12-17T10:47:11.875Z,928.10
2018-12-17T10:48:43.364Z,928.08
2018-12-17T10:50:15.147Z,928.13
2018-12-17T10:51:46.874Z,928.18
2018-12-17T10:54:49.687Z,928.18
2018-12-17T10:56:21.531Z,928.14
2018-12-17T10:57:52.896Z,928.08
2018-12-17T10:59:24.495Z,928.05
2018-12-17T11:00:57.143Z,928.05
2018-12-17T11:02:27.909Z,928.07
2018-12-17T11:03:59.189Z,928.12
2018-12-17T11:06:35.450Z,928.19
2018-12-17T11:08:06.020Z,928.19
2018-12-17T11:09:37.605Z,928.22
2018-12-17T11:11:09.185Z,928.25
2018-12-17T11:12:41.396Z,928.21
2018-12-17T11:14:12.349Z,928.13
2018-12-17T11:15:44.624Z,928.20
2018-12-17T11:17:15.530Z,928.16
2018-12-17T11:18:47.147Z,928.23
2018-12-17T11:20:19.090Z,928.19
2018-12-17T11:21:50.565Z,928.18
2018-12-17T11:23:21.846Z,928.18
2018-12-17T11:26:25.011Z,928.20
2018-12-17T11:27:56.897Z,928.16
2018-12-17T11:29:28.697Z,928.13
2018-12-17T11:30:59.960Z,928.17
2018-12-17T11:32:31.351Z,928.18
2018-12-17T11:34:02.931Z,928.19
2018-12-17T11:35:35.923Z,928.21
2018-12-17T11:37:06.097Z,928.20
2018-12-17T11:38:37.773Z,928.28
2018-12-17T11:40:09.458Z,928.22
2018-12-17T11:41:40.880Z,928.19
2018-12-17T11:44:44.005Z,928.23
2018-12-17T11:50:50.367Z,928.20
2018-12-17T11:53:53.861Z,928.25
2018-12-17T11:55:25.338Z,928.21
2018-12-17T11:56:56.993Z,928.23
2018-12-17T11:58:28.528Z,928.27
2018-12-17T12:00:00.482Z,928.28
2018-12-17T12:01:31.495Z,928.25
2018-12-17T12:03:03.028Z,928.19
2018-12-17T12:04:34.664Z,928.15
2018-12-17T12:06:13.666Z,928.15
2018-12-17T12:07:38.499Z,928.17
2018-12-17T12:09:09.416Z,928.17
2018-12-17T12:10:41.255Z,928.24
2018-12-17T12:13:44.366Z,928.23
2018-12-17T12:15:15.921Z,928.19
2018-12-17T12:16:47.540Z,928.20
2018-12-17T12:18:19.150Z,928.20
2018-12-17T12:19:50.810Z,928.13
2018-12-17T12:21:22.177Z,928.16
2018-12-17T12:22:53.674Z,928.15
2018-12-17T12:24:25.495Z,928.10
2018-12-17T12:25:57.049Z,928.11
2018-12-17T12:27:28.780Z,928.14
2018-12-17T12:29:00.053Z,928.10
2018-12-17T12:32:03.188Z,928.13
2018-12-17T12:33:35.344Z,928.12
2018-12-17T12:35:06.288Z,928.11
2018-12-17T12:36:38.792Z,928.14
2018-12-17T12:38:09.490Z,928.10
2018-12-17T12:39:41.126Z,928.09
2018-12-17T12:41:12.815Z,928.08
2018-12-17T12:44:15.888Z,928.07
2018-12-17T12:45:47.555Z,928.05
2018-12-17T12:48:50.620Z,928.03
2018-12-17T12:50:22.542Z,928.02
2018-12-17T12:51:53.857Z,928.04
2018-12-17T12:53:25.545Z,928.09
2018-12-17T12:54:57.009Z,928.02
2018-12-17T12:56:28.546Z,928.02
2018-12-17T12:58:03.657Z,928.01
2018-12-17T12:59:31.749Z,928.00
2018-12-17T13:01:07.550Z,928.01
2018-12-17T13:04:06.431Z,928.07
2018-12-17T13:07:13.159Z,928.01
2018-12-17T13:08:41.191Z,927.96
2018-12-17T13:10:13.324Z,927.92
2018-12-17T13:11:44.365Z,927.92
2018-12-17T13:13:16.459Z,927.87
2018-12-17T13:14:47.588Z,927.89
2018-12-17T13:16:19.434Z,927.82
2018-12-17T13:17:50.714Z,927.78
2018-12-17T13:20:53.929Z,927.74
2018-12-17T13:22:25.476Z,927.70
2018-12-17T13:23:57.158Z,927.72
2018-12-17T13:25:28.652Z,927.71
2018-12-17T13:27:00.250Z,927.71
2018-12-17T13:28:31.931Z,927.70
2018-12-17T13:30:03.459Z,927.66
2018-12-17T13:31:35.240Z,927.64
2018-12-17T13:33:07.277Z,927.60
2018-12-17T13:34:38.475Z,927.63
2018-12-17T13:36:09.939Z,927.62
2018-12-17T13:37:41.430Z,927.58
2018-12-17T13:39:13.324Z,927.75
2018-12-17T13:40:44.912Z,927.98
2018-12-17T13:42:16.195Z,927.95
2018-12-17T13:43:47.734Z,927.86
2018-12-17T13:45:19.655Z,927.74
2018-12-17T13:46:51.021Z,927.61
2018-12-17T13:48:22.479Z,927.51
2018-12-17T13:49:54.372Z,927.69
2018-12-17T13:51:26.177Z,927.59
2018-12-17T13:52:57.245Z,927.66
2018-12-17T13:54:29.573Z,927.51
2018-12-17T13:57:32.035Z,927.54
2018-12-17T13:59:03.600Z,927.43
2018-12-17T14:00:35.714Z,927.38
2018-12-17T14:03:38.402Z,927.17
2018-12-17T14:06:43.681Z,927.35
2018-12-17T14:08:13.131Z,927.33
2018-12-17T14:09:45.026Z,927.28
2018-12-17T14:11:16.641Z,927.37
2018-12-17T14:12:48.249Z,927.39
2018-12-17T14:14:19.486Z,927.54
2018-12-17T14:15:51.284Z,927.65
2018-12-17T14:17:22.683Z,927.36
2018-12-17T14:18:54.254Z,927.24
2018-12-17T14:20:25.859Z,927.28
2018-12-17T14:21:57.447Z,927.17
2018-12-17T14:23:29.332Z,927.08
2018-12-17T14:25:00.718Z,926.97
2018-12-17T14:26:32.205Z,926.94
2018-12-17T14:28:03.820Z,927.01
2018-12-17T14:29:35.383Z,927.29
2018-12-17T14:32:38.560Z,927.35
2018-12-17T14:34:10.152Z,927.17
2018-12-17T14:35:42.394Z,927.01
2018-12-17T14:37:13.528Z,927.02
2018-12-17T14:38:44.913Z,927.09
2018-12-17T14:40:16.503Z,926.96
2018-12-17T14:41:48.091Z,926.99
2018-12-17T14:43:20.207Z,927.25
2018-12-17T14:44:51.725Z,926.98
2018-12-17T14:47:54.660Z,927.07
2018-12-17T14:49:26.041Z,927.06
2018-12-17T14:50:57.935Z,926.89
2018-12-17T14:52:29.224Z,926.86
2018-12-17T14:54:00.812Z,926.84
2018-12-17T14:57:03.994Z,926.93
2018-12-17T14:58:35.684Z,926.91
2018-12-17T15:00:07.176Z,926.78
2018-12-17T15:04:42.048Z,926.59
2018-12-17T15:06:13.548Z,926.56
2018-12-17T15:07:45.752Z,926.54
2018-12-17T15:09:17.293Z,926.44
2018-12-17T15:12:19.902Z,926.35
2018-12-17T15:13:51.495Z,926.37
2018-12-17T15:15:23.084Z,926.38
2018-12-17T15:16:54.677Z,926.29
2018-12-17T15:18:26.267Z,926.46
2018-12-17T15:19:57.858Z,926.40
2018-12-17T15:21:29.970Z,926.35
2018-12-17T15:24:40.252Z,926.41
2018-12-17T15:26:04.225Z,926.49
2018-12-17T15:27:35.815Z,926.56
2018-12-17T15:29:07.608Z,926.48
2018-12-17T15:32:10.591Z,926.36
2018-12-17T15:33:42.177Z,926.30
2018-12-17T15:35:13.767Z,926.51
2018-12-17T15:36:45.661Z,926.32
2018-12-17T15:38:17.616Z,926.28
2018-12-17T15:39:49.042Z,926.30
2018-12-17T15:41:20.330Z,926.47
2018-12-17T15:42:51.774Z,926.52
2018-12-17T15:45:55.246Z,926.46
2018-12-17T15:47:26.790Z,926.39
2018-12-17T15:52:01.876Z,926.30
2018-12-17T15:55:04.446Z,926.00
2018-12-17T15:56:36.562Z,925.97
2018-12-17T15:58:07.828Z,926.33
2018-12-17T15:59:39.616Z,925.88
2018-12-17T16:01:11.000Z,925.95
2018-12-17T16:02:42.448Z,925.95
2018-12-17T16:04:14.075Z,925.79
2018-12-17T16:05:45.568Z,925.64
2018-12-17T16:07:17.366Z,926.12
2018-12-17T16:08:48.736Z,926.14
2018-12-17T16:10:20.702Z,926.10
2018-12-17T16:11:52.425Z,926.25
2018-12-17T16:13:23.556Z,925.84
2018-12-17T16:14:55.362Z,925.83
2018-12-17T16:16:26.800Z,925.82
2018-12-17T16:17:58.458Z,925.88
2018-12-17T16:19:30.061Z,925.92
2018-12-17T16:21:01.629Z,926.33
2018-12-17T16:22:33.632Z,926.31
2018-12-17T16:24:04.737Z,925.86
2018-12-17T16:25:36.862Z,926.26
2018-12-17T16:27:07.798Z,926.09
2018-12-17T16:28:39.629Z,926.07
2018-12-17T16:30:11.162Z,925.94
2018-12-17T16:31:42.759Z,925.91
2018-12-17T16:34:46.166Z,925.79
2018-12-17T16:36:17.309Z,925.52
2018-12-17T16:37:48.898Z,925.90
2018-12-17T16:39:20.781Z,925.84
2018-12-17T16:40:52.180Z,925.34
2018-12-17T16:42:23.677Z,925.34
2018-12-17T16:43:55.854Z,925.52
2018-12-17T16:46:58.423Z,925.92
2018-12-17T16:48:30.317Z,925.64
2018-12-17T16:50:01.603Z,925.55
2018-12-17T16:51:33.191Z,925.55
2018-12-17T16:53:04.831Z,925.53
2018-12-17T16:54:36.371Z,925.55
2018-12-17T16:57:39.553Z,925.50
2018-12-17T16:59:11.278Z,925.53
2018-12-17T17:00:42.737Z,925.37
2018-12-17T17:02:14.329Z,925.46
2018-12-17T17:03:46.372Z,925.35
2018-12-17T17:05:17.816Z,924.91
2018-12-17T17:06:49.418Z,925.15
2018-12-17T17:09:52.522Z,925.03
2018-12-17T17:14:27.150Z,925.11
2018-12-17T17:17:30.223Z,924.98
2018-12-17T17:19:08.188Z,924.94
2018-12-17T17:20:33.394Z,925.29
2018-12-17T17:23:36.564Z,924.97
2018-12-17T17:25:08.173Z,924.96
2018-12-17T17:26:39.737Z,924.95
2018-12-17T17:28:11.318Z,925.02
2018-12-17T17:29:42.902Z,924.98
2018-12-17T17:31:14.488Z,924.88
2018-12-17T17:32:46.373Z,924.86
2018-12-17T17:34:17.655Z,924.82
2018-12-17T17:38:52.406Z,924.90
2018-12-17T17:40:23.995Z,925.46
2018-12-17T17:41:55.573Z,924.86
2018-12-17T17:43:27.156Z,925.54
2018-12-17T17:44:58.943Z,924.92
2018-12-17T17:46:30.441Z,924.85
2018-12-17T17:48:01.908Z,924.81
2018-12-17T17:51:05.192Z,924.85
2018-12-17T17:52:36.660Z,924.81
2018-12-17T17:54:08.266Z,924.87
2018-12-17T17:55:39.826Z,924.84
2018-12-17T17:57:11.426Z,924.77
2018-12-17T18:00:15.101Z,924.72
2018-12-17T18:01:46.466Z,924.69
2018-12-17T18:03:17.746Z,924.76
2018-12-17T18:04:49.333Z,924.79
2018-12-17T18:06:20.917Z,925.29
2018-12-17T18:09:24.379Z,924.92
2018-12-17T18:10:55.660Z,924.81
2018-12-17T18:12:27.243Z,925.43
2018-12-17T18:13:58.827Z,925.44
2018-12-17T18:15:30.410Z,925.47
2018-12-17T18:18:33.578Z,925.45
2018-12-17T18:21:36.951Z,925.52
2018-12-17T18:23:08.857Z,925.47
2018-12-17T18:24:39.920Z,925.35
2018-12-17T18:26:11.559Z,925.35
2018-12-17T18:27:43.397Z,925.21
2018-12-17T18:29:14.988Z,925.11
2018-12-17T18:30:46.424Z,924.87
2018-12-17T18:32:17.857Z,924.65
2018-12-17T18:35:21.241Z,925.15
2018-12-17T18:36:52.821Z,925.19
2018-12-17T18:38:24.686Z,925.28
2018-12-17T18:39:55.844Z,925.55
2018-12-17T18:41:27.388Z,925.44
2018-12-17T18:42:58.968Z,925.22
2018-12-17T18:44:30.762Z,925.05
2018-12-17T18:46:02.184Z,924.92
2018-12-17T18:47:33.831Z,924.47
2018-12-17T18:49:05.623Z,924.44
2018-12-17T18:50:36.904Z,924.22
2018-12-17T18:52:08.598Z,924.49
2018-12-17T18:53:40.077Z,924.80
2018-12-17T18:56:43.289Z,924.15
2018-12-17T18:59:46.773Z,924.10
2018-12-17T19:02:49.591Z,924.10
2018-12-17T19:04:21.695Z,924.08
2018-12-17T19:07:24.440Z,924.01
2018-12-17T19:10:27.506Z,924.08
2018-12-17T19:11:59.291Z,924.05
2018-12-17T19:13:30.673Z,924.02
2018-12-17T19:15:02.256Z,924.03
2018-12-17T19:16:33.839Z,923.99
2018-12-17T19:18:05.421Z,923.97
2018-12-17T19:19:37.006Z,923.95
2018-12-17T19:21:08.587Z,923.94
2018-12-17T19:22:40.169Z,923.96
2018-12-17T19:24:11.753Z,923.98
2018-12-17T19:25:43.435Z,923.96
2018-12-17T19:27:14.918Z,923.93
2018-12-17T19:28:46.806Z,924.00
2018-12-17T19:30:18.082Z,923.97
2018-12-17T19:31:49.668Z,923.97
2018-12-17T19:33:21.253Z,924.04
2018-12-17T19:34:53.134Z,923.99
2018-12-17T19:36:24.412Z,923.94
2018-12-17T19:37:55.995Z,924.01
2018-12-17T19:39:27.575Z,923.92
2018-12-17T19:40:59.157Z,923.93
2018-12-17T19:42:30.941Z,923.99
2018-12-17T19:44:02.500Z,923.99
2018-12-17T19:45:33.907Z,924.05
2018-12-17T19:47:05.487Z,924.04
2018-12-17T19:48:37.270Z,924.00
2018-12-17T19:50:08.651Z,923.99
2018-12-17T19:51:40.234Z,923.90
2018-12-17T19:53:11.814Z,923.93
2018-12-17T19:54:43.399Z,923.91
2018-12-17T19:56:14.982Z,923.92
2018-12-17T19:57:46.867Z,923.90
2018-12-17T19:59:18.146Z,923.92
2018-12-17T20:00:49.930Z,923.89
2018-12-17T20:02:21.933Z,923.87
2018-12-17T20:03:53.199Z,923.82
2018-12-17T20:05:24.478Z,923.82
2018-12-17T20:06:56.059Z,923.81
2018-12-17T20:08:27.644Z,923.84
2018-12-17T20:09:59.227Z,923.91
2018-12-17T20:13:02.395Z,923.96
2018-12-17T20:14:33.976Z,924.01
2018-12-17T20:16:05.559Z,923.96
2018-12-17T20:19:08.927Z,924.04
2018-12-17T20:20:40.407Z,924.07
2018-12-17T20:22:11.889Z,924.08
2018-12-17T20:23:43.474Z,924.09
2018-12-17T20:25:15.056Z,924.12
2018-12-17T20:26:46.639Z,924.13
2018-12-17T20:28:18.223Z,924.15
2018-12-17T20:29:50.569Z,924.19
2018-12-17T20:31:21.393Z,924.22
2018-12-17T20:32:53.690Z,924.22